createdAt,value
2018-04-26T00:00:31.829Z,13.10
2018-04-26T00:03:00.942Z,11.97
2018-04-26T00:05:29.264Z,17.80
2018-04-26T00:07:57.581Z,9.73
2018-04-26T00:10:25.879Z,10.93
2018-04-26T00:12:54.933Z,11.03
2018-04-26T00:15:23.240Z,11.80
2018-04-26T00:17:51.557Z,15.57
2018-04-26T00:20:19.851Z,11.83
2018-04-26T00:22:48.159Z,8.63
2018-04-26T00:25:16.457Z,9.63
2018-04-26T00:27:44.761Z,6.80
2018-04-26T00:30:13.721Z,10.40
2018-04-26T00:32:42.029Z,5.30
2018-04-26T00:35:11.099Z,7.40
2018-04-26T00:37:39.572Z,8.63
2018-04-26T00:40:07.871Z,9.73
2018-04-26T00:42:36.203Z,10.67
2018-04-26T00:45:04.505Z,9.37
2018-04-26T00:47:32.805Z,10.30
2018-04-26T00:50:01.102Z,7.80
2018-04-26T00:52:29.429Z,12.50
2018-04-26T00:54:57.745Z,11.97
2018-04-26T00:57:26.056Z,6.63
2018-04-26T00:59:55.155Z,8.27
2018-04-26T01:02:24.247Z,6.37
2018-04-26T01:04:53.325Z,6.60
2018-04-26T01:07:21.637Z,8.67
2018-04-26T01:09:50.705Z,6.53
2018-04-26T01:12:19.025Z,6.90
2018-04-26T01:14:48.093Z,8.10
2018-04-26T01:17:16.395Z,3.10
2018-04-26T01:19:45.473Z,5.37
2018-04-26T01:22:13.762Z,5.97
2018-04-26T01:24:42.821Z,6.43
2018-04-26T01:27:11.118Z,7.20
2018-04-26T01:29:39.424Z,9.47
2018-04-26T01:32:07.717Z,9.97
2018-04-26T01:34:36.808Z,11.37
2018-04-26T01:37:23.650Z,7.17
2018-04-26T01:39:51.963Z,13.90
2018-04-26T01:42:20.261Z,9.93
2018-04-26T01:44:48.581Z,11.90
2018-04-26T01:47:16.879Z,7.03
2018-04-26T01:49:45.160Z,7.73
2018-04-26T01:52:13.449Z,14.13
2018-04-26T01:54:41.737Z,9.57
2018-04-26T01:57:10.034Z,9.20
2018-04-26T01:59:38.335Z,14.57
2018-04-26T02:02:07.399Z,5.63
2018-04-26T02:04:35.691Z,15.37
2018-04-26T02:07:03.986Z,10.37
2018-04-26T02:09:32.337Z,8.43
2018-04-26T02:12:00.631Z,8.00
2018-04-26T02:14:28.941Z,8.90
2018-04-26T02:16:58.008Z,7.20
2018-04-26T02:19:27.021Z,9.23
2018-04-26T02:21:56.089Z,6.10
2018-04-26T02:24:24.379Z,8.33
2018-04-26T02:26:53.355Z,12.40
2018-04-26T02:29:21.648Z,9.97
2018-04-26T02:31:49.941Z,7.47
2018-04-26T02:34:18.248Z,11.83
2018-04-26T02:36:47.310Z,7.40
2018-04-26T02:39:16.373Z,5.13
2018-04-26T02:41:44.689Z,6.40
2018-04-26T02:44:13.020Z,8.80
2018-04-26T02:46:41.376Z,12.17
2018-04-26T02:49:09.691Z,11.60
2018-04-26T02:51:37.984Z,8.40
2018-04-26T02:54:06.305Z,7.13
2018-04-26T02:56:34.593Z,7.87
2018-04-26T02:59:02.880Z,10.63
2018-04-26T03:01:31.203Z,6.50
2018-04-26T03:03:59.528Z,11.47
2018-04-26T03:06:27.835Z,6.13
2018-04-26T03:08:56.888Z,7.70
2018-04-26T03:11:25.189Z,8.73
2018-04-26T03:13:54.034Z,7.30
2018-04-26T03:16:22.337Z,8.77
2018-04-26T03:18:50.638Z,6.43
2018-04-26T03:21:18.942Z,7.30
2018-04-26T03:23:47.247Z,7.27
2018-04-26T03:26:15.529Z,7.30
2018-04-26T03:28:43.836Z,10.33
2018-04-26T03:31:12.288Z,9.90
2018-04-26T03:33:40.566Z,11.47
2018-04-26T03:36:09.641Z,10.43
2018-04-26T03:38:38.718Z,7.27
2018-04-26T03:41:07.018Z,10.50
2018-04-26T03:43:35.314Z,11.10
2018-04-26T03:46:04.408Z,6.87
2018-04-26T03:48:32.713Z,10.73
2018-04-26T03:51:01.019Z,7.37
2018-04-26T03:53:29.322Z,6.97
2018-04-26T03:55:57.619Z,9.07
2018-04-26T03:58:25.919Z,5.63
2018-04-26T04:01:12.959Z,4.77
2018-04-26T04:03:59.018Z,8.97
2018-04-26T04:06:28.073Z,13.17
2018-04-26T04:08:56.509Z,6.83
2018-04-26T04:11:25.569Z,5.60
2018-04-26T04:13:53.928Z,10.03
2018-04-26T04:16:22.227Z,10.73
2018-04-26T04:18:50.516Z,7.67
2018-04-26T04:21:18.812Z,7.93
2018-04-26T04:23:47.901Z,7.73
2018-04-26T04:26:16.180Z,8.20
2018-04-26T04:28:44.489Z,9.03
2018-04-26T04:31:12.790Z,7.83
2018-04-26T04:33:41.080Z,11.60
2018-04-26T04:36:09.374Z,12.17
2018-04-26T04:38:37.685Z,15.10
2018-04-26T04:41:05.995Z,11.80
2018-04-26T04:43:34.299Z,13.83
2018-04-26T04:46:02.596Z,14.83
2018-04-26T04:48:30.910Z,12.20
2018-04-26T04:50:59.216Z,12.50
2018-04-26T04:53:27.516Z,12.57
2018-04-26T04:55:55.825Z,12.30
2018-04-26T04:58:24.125Z,8.80
2018-04-26T05:00:52.425Z,11.27
2018-04-26T05:03:21.524Z,11.67
2018-04-26T05:05:50.600Z,12.83
2018-04-26T05:08:18.902Z,17.77
2018-04-26T05:10:47.982Z,15.90
2018-04-26T05:13:16.902Z,14.67
2018-04-26T05:15:45.963Z,15.67
2018-04-26T05:18:14.253Z,12.90
2018-04-26T05:20:42.551Z,16.33
2018-04-26T05:23:11.637Z,9.77
2018-04-26T05:25:40.005Z,12.27
2018-04-26T05:28:08.259Z,10.60
2018-04-26T05:30:36.576Z,13.00
2018-04-26T05:33:04.902Z,17.97
2018-04-26T05:35:33.184Z,8.93
2018-04-26T05:38:01.861Z,13.00
2018-04-26T05:40:30.375Z,11.23
2018-04-26T05:42:58.644Z,15.93
2018-04-26T05:45:26.934Z,8.23
2018-04-26T05:47:55.245Z,14.13
2018-04-26T05:50:23.558Z,17.73
2018-04-26T05:52:52.629Z,9.20
2018-04-26T05:55:20.995Z,13.80
2018-04-26T05:57:49.298Z,12.93
2018-04-26T06:00:17.593Z,13.87
2018-04-26T06:02:46.694Z,13.87
2018-04-26T06:05:15.771Z,15.13
2018-04-26T06:07:44.068Z,11.10
2018-04-26T06:10:13.133Z,13.47
2018-04-26T06:12:41.467Z,14.80
2018-04-26T06:15:09.769Z,15.27
2018-04-26T06:17:38.087Z,9.57
2018-04-26T06:20:07.197Z,12.53
2018-04-26T06:22:35.521Z,12.00
2018-04-26T06:25:03.876Z,15.87
2018-04-26T06:27:32.151Z,11.70
2018-04-26T06:30:01.308Z,13.40
2018-04-26T06:32:29.654Z,11.33
2018-04-26T06:34:57.948Z,13.53
2018-04-26T06:37:26.270Z,5.87
2018-04-26T06:39:54.615Z,13.53
2018-04-26T06:42:22.983Z,9.13
2018-04-26T06:44:51.240Z,5.80
2018-04-26T06:47:20.357Z,13.30
2018-04-26T06:49:50.667Z,12.93
2018-04-26T06:52:19.002Z,12.37
2018-04-26T06:54:47.328Z,12.30
2018-04-26T06:57:16.393Z,13.53
2018-04-26T06:59:44.739Z,11.90
2018-04-26T07:02:13.038Z,8.87
2018-04-26T07:04:41.341Z,13.17
2018-04-26T07:07:09.628Z,9.23
2018-04-26T07:09:37.998Z,7.53
2018-04-26T07:12:06.353Z,10.93
2018-04-26T07:14:34.945Z,12.67
2018-04-26T07:17:03.283Z,10.97
2018-04-26T07:19:32.358Z,8.83
2018-04-26T07:22:00.678Z,12.83
2018-04-26T07:24:29.009Z,11.43
2018-04-26T07:26:57.322Z,13.00
2018-04-26T07:29:26.558Z,10.40
2018-04-26T07:31:54.853Z,15.60
2018-04-26T07:34:23.169Z,11.40
2018-04-26T07:36:51.562Z,6.70
2018-04-26T07:39:20.673Z,12.43
2018-04-26T07:41:49.753Z,11.67
2018-04-26T07:44:18.046Z,12.57
2018-04-26T07:46:47.138Z,10.83
2018-04-26T07:49:15.462Z,10.90
2018-04-26T07:51:43.773Z,11.33
2018-04-26T07:54:12.138Z,12.60
2018-04-26T07:56:40.436Z,13.07
2018-04-26T07:59:08.752Z,12.40
2018-04-26T08:01:37.927Z,12.90
2018-04-26T08:04:06.160Z,12.60
2018-04-26T08:06:34.449Z,16.17
2018-04-26T08:09:02.769Z,12.23
2018-04-26T08:11:31.105Z,13.30
2018-04-26T08:13:59.421Z,13.67
2018-04-26T08:16:27.720Z,12.50
2018-04-26T08:18:56.022Z,7.10
2018-04-26T08:21:25.117Z,12.43
2018-04-26T08:23:54.194Z,13.83
2018-04-26T08:26:22.498Z,13.07
2018-04-26T08:28:51.568Z,12.97
2018-04-26T08:31:19.894Z,14.83
2018-04-26T08:33:48.224Z,15.83
2018-04-26T08:36:18.170Z,8.17
2018-04-26T08:38:47.244Z,14.33
2018-04-26T08:41:15.577Z,10.50
2018-04-26T08:43:43.899Z,12.30
2018-04-26T08:46:12.210Z,11.20
2018-04-26T08:48:41.283Z,7.53
2018-04-26T08:51:09.650Z,8.90
2018-04-26T08:53:37.940Z,12.43
2018-04-26T08:56:06.290Z,12.00
2018-04-26T08:58:34.577Z,10.70
2018-04-26T09:01:02.882Z,7.83
2018-04-26T09:03:31.207Z,14.80
2018-04-26T09:06:00.299Z,12.10
2018-04-26T09:08:29.379Z,11.20
2018-04-26T09:10:57.681Z,9.07
2018-04-26T09:13:26.758Z,10.63
2018-04-26T09:15:55.067Z,13.20
2018-04-26T09:18:24.478Z,9.90
2018-04-26T09:20:52.783Z,8.40
2018-04-26T09:23:21.097Z,11.30
2018-04-26T09:25:49.436Z,12.33
2018-04-26T09:28:17.751Z,7.90
2018-04-26T09:30:46.060Z,10.73
2018-04-26T09:33:15.127Z,10.50
2018-04-26T09:35:43.424Z,9.53
2018-04-26T09:38:11.746Z,11.83
2018-04-26T09:40:40.057Z,13.87
2018-04-26T09:43:08.374Z,9.33
2018-04-26T09:45:36.718Z,13.20
2018-04-26T09:48:05.027Z,7.70
2018-04-26T09:50:33.324Z,10.23
2018-04-26T09:53:01.720Z,7.30
2018-04-26T09:55:30.891Z,10.77
2018-04-26T09:57:59.178Z,8.33
2018-04-26T10:00:28.430Z,12.10
2018-04-26T10:02:57.669Z,6.80
2018-04-26T10:05:31.397Z,7.23
2018-04-26T10:07:59.714Z,6.53
2018-04-26T10:10:28.179Z,10.30
2018-04-26T10:12:57.283Z,9.37
2018-04-26T10:15:25.593Z,8.87
2018-04-26T10:17:53.896Z,8.47
2018-04-26T10:20:22.223Z,7.70
2018-04-26T10:22:51.311Z,8.43
2018-04-26T10:25:20.374Z,14.47
2018-04-26T10:27:48.692Z,9.43
2018-04-26T10:30:17.822Z,13.10
2018-04-26T10:32:46.134Z,11.90
2018-04-26T10:35:14.450Z,7.17
2018-04-26T10:37:43.526Z,11.23
2018-04-26T10:40:11.835Z,9.63
2018-04-26T10:42:40.898Z,7.53
2018-04-26T10:45:09.214Z,11.20
2018-04-26T10:47:38.301Z,8.57
2018-04-26T10:50:06.614Z,9.10
2018-04-26T10:52:34.909Z,8.03
2018-04-26T10:55:03.344Z,11.30
2018-04-26T10:57:32.634Z,6.57
2018-04-26T11:00:23.126Z,10.97
2018-04-26T11:02:51.741Z,11.83
2018-04-26T11:05:20.847Z,9.67
2018-04-26T11:07:49.186Z,8.53
2018-04-26T11:10:17.489Z,10.17
2018-04-26T11:12:46.569Z,11.07
2018-04-26T11:15:14.877Z,8.90
2018-04-26T11:17:43.952Z,10.40
2018-04-26T11:20:12.267Z,9.30
2018-04-26T11:22:40.582Z,14.40
2018-04-26T11:25:08.890Z,8.40
2018-04-26T11:27:37.209Z,8.43
2018-04-26T11:30:05.609Z,11.17
2018-04-26T11:32:33.933Z,7.30
2018-04-26T11:35:02.231Z,8.70
2018-04-26T11:37:30.557Z,7.63
2018-04-26T11:39:58.929Z,8.17
2018-04-26T11:42:27.242Z,9.13
2018-04-26T11:44:56.440Z,8.10
2018-04-26T11:47:24.712Z,8.67
2018-04-26T11:49:53.006Z,7.93
2018-04-26T11:52:21.339Z,7.83
2018-04-26T11:54:49.618Z,8.47
2018-04-26T11:57:18.693Z,8.37
2018-04-26T11:59:47.034Z,8.60
2018-04-26T12:02:15.437Z,8.10
2018-04-26T12:04:44.438Z,7.20
2018-04-26T12:07:12.866Z,11.20
2018-04-26T12:09:41.169Z,14.37
2018-04-26T12:12:09.470Z,7.53
2018-04-26T12:14:37.770Z,7.90
2018-04-26T12:17:06.074Z,11.00
2018-04-26T12:19:35.138Z,6.47
2018-04-26T12:22:03.455Z,12.43
2018-04-26T12:24:32.525Z,10.83
2018-04-26T12:27:04.178Z,10.23
2018-04-26T12:29:32.963Z,11.20
2018-04-26T12:32:01.260Z,8.30
2018-04-26T12:34:29.615Z,9.30
2018-04-26T12:36:58.052Z,9.03
2018-04-26T12:39:27.156Z,12.23
2018-04-26T12:41:56.247Z,10.87
2018-04-26T12:44:27.737Z,8.40
2018-04-26T12:46:57.594Z,8.17
2018-04-26T12:49:25.891Z,10.07
2018-04-26T12:51:54.254Z,10.70
2018-04-26T12:54:32.287Z,10.77
2018-04-26T12:57:00.686Z,10.73
2018-04-26T12:59:31.200Z,11.70
2018-04-26T13:02:00.357Z,11.93
2018-04-26T13:04:29.402Z,12.13
2018-04-26T13:06:57.856Z,10.10
2018-04-26T13:09:26.161Z,9.40
2018-04-26T13:11:55.262Z,10.07
2018-04-26T13:14:24.321Z,9.07
2018-04-26T13:16:53.304Z,9.43
2018-04-26T13:19:21.621Z,10.43
2018-04-26T13:21:49.927Z,10.60
2018-04-26T13:24:18.239Z,17.30
2018-04-26T13:26:46.554Z,10.77
2018-04-26T13:29:14.888Z,9.90
2018-04-26T13:31:43.670Z,11.00
2018-04-26T13:34:15.471Z,11.33
2018-04-26T13:36:43.838Z,11.23
2018-04-26T13:39:12.161Z,10.17
2018-04-26T13:41:40.511Z,7.50
2018-04-26T13:44:13.364Z,11.23
2018-04-26T13:46:41.726Z,7.60
2018-04-26T13:49:10.978Z,8.40
2018-04-26T13:51:39.282Z,8.10
2018-04-26T13:54:07.580Z,13.50
2018-04-26T13:56:36.645Z,6.90
2018-04-26T13:59:05.719Z,9.20
2018-04-26T14:01:34.114Z,9.83
2018-04-26T14:04:02.829Z,8.90
2018-04-26T14:06:31.154Z,8.47
2018-04-26T14:08:59.481Z,10.20
2018-04-26T14:11:27.787Z,6.00
2018-04-26T14:13:56.136Z,9.20
2018-04-26T14:16:24.536Z,7.00
2018-04-26T14:18:52.872Z,7.67
2018-04-26T14:21:21.179Z,7.47
2018-04-26T14:23:49.492Z,7.37
2018-04-26T14:26:17.803Z,6.73
2018-04-26T14:28:46.119Z,9.00
2018-04-26T14:31:14.426Z,8.57
2018-04-26T14:33:42.733Z,5.23
2018-04-26T14:36:11.802Z,11.30
2018-04-26T14:38:40.112Z,7.30
2018-04-26T14:41:09.201Z,5.90
2018-04-26T14:43:38.265Z,5.23
2018-04-26T14:46:06.573Z,6.80
2018-04-26T14:48:39.744Z,5.90
2018-04-26T14:51:08.654Z,5.43
2018-04-26T14:53:37.027Z,5.73
2018-04-26T14:56:05.335Z,5.80
2018-04-26T14:58:34.469Z,6.03
2018-04-26T15:01:02.785Z,6.17
2018-04-26T15:03:31.101Z,7.67
2018-04-26T15:06:00.177Z,7.10
2018-04-26T15:08:28.492Z,6.27
2018-04-26T15:10:56.790Z,7.80
2018-04-26T15:13:25.291Z,5.80
2018-04-26T15:15:53.591Z,6.43
2018-04-26T15:18:21.885Z,7.03
2018-04-26T15:20:50.193Z,6.93
2018-04-26T15:23:19.265Z,9.07
2018-04-26T15:25:47.656Z,7.37
2018-04-26T15:28:16.842Z,7.10
2018-04-26T15:30:45.140Z,6.57
2018-04-26T15:33:13.453Z,5.83
2018-04-26T15:35:41.815Z,7.83
2018-04-26T15:38:10.925Z,9.83
2018-04-26T15:40:39.235Z,7.30
2018-04-26T15:43:07.551Z,6.50
2018-04-26T15:45:36.436Z,6.73
2018-04-26T15:48:05.810Z,4.90
2018-04-26T16:04:24.016Z,7.80
2018-04-26T16:07:10.077Z,9.20
2018-04-26T16:10:00.124Z,8.40
2018-04-26T16:13:02.682Z,9.70
2018-04-26T16:15:54.431Z,6.87
2018-04-26T16:18:44.198Z,7.67
2018-04-26T16:21:34.724Z,8.13
2018-04-26T16:24:26.397Z,7.67
2018-04-26T16:27:18.128Z,8.33
2018-04-26T16:30:09.653Z,8.90
2018-04-26T16:33:01.339Z,7.03
2018-04-26T16:35:47.495Z,9.30
2018-04-26T16:38:34.266Z,9.00
2018-04-26T16:41:02.585Z,7.70
2018-04-26T16:43:30.915Z,7.43
2018-04-26T16:45:59.205Z,10.77
2018-04-26T16:48:27.517Z,9.23
2018-04-26T16:50:56.283Z,9.27
2018-04-26T16:53:24.611Z,14.20
2018-04-26T16:55:53.685Z,11.30
2018-04-26T16:58:21.993Z,11.40
2018-04-26T17:00:51.071Z,8.17
2018-04-26T17:03:19.369Z,7.23
2018-04-26T17:05:48.463Z,13.80
2018-04-26T17:08:17.532Z,10.17
2018-04-26T17:10:45.842Z,11.13
2018-04-26T17:13:14.976Z,10.50
2018-04-26T17:15:43.293Z,9.20
2018-04-26T17:18:11.577Z,12.13
2018-04-26T17:20:39.929Z,7.37
2018-04-26T17:23:08.239Z,10.23
2018-04-26T17:25:37.301Z,11.97
2018-04-26T17:28:05.678Z,7.70
2018-04-26T17:30:35.994Z,6.47
2018-04-26T17:33:04.284Z,9.73
2018-04-26T17:35:32.593Z,6.00
2018-04-26T17:38:00.910Z,9.03
2018-04-26T17:40:29.218Z,10.20
2018-04-26T17:42:57.520Z,9.90
2018-04-26T17:45:25.905Z,8.30
2018-04-26T17:47:54.211Z,12.00
2018-04-26T17:50:22.513Z,15.13
2018-04-26T17:52:50.921Z,14.83
2018-04-26T17:55:19.162Z,12.10
2018-04-26T17:57:47.469Z,6.17
2018-04-26T18:00:16.557Z,10.30
2018-04-26T18:02:44.877Z,13.57
2018-04-26T18:05:13.195Z,16.67
2018-04-26T18:07:41.521Z,8.87
2018-04-26T18:10:09.818Z,6.10
2018-04-26T18:12:40.011Z,7.37
2018-04-26T18:15:09.079Z,9.77
2018-04-26T18:17:37.383Z,9.83
2018-04-26T18:20:08.575Z,8.40
2018-04-26T18:22:34.024Z,11.70
2018-04-26T18:25:02.337Z,13.23
2018-04-26T18:27:31.425Z,12.13
2018-04-26T18:29:59.716Z,10.77
2018-04-26T18:32:30.655Z,13.20
2018-04-26T18:34:59.878Z,13.50
2018-04-26T18:37:28.240Z,15.93
2018-04-26T18:39:57.313Z,14.27
2018-04-26T18:42:25.620Z,13.33
2018-04-26T18:44:54.752Z,14.97
2018-04-26T18:47:23.049Z,15.37
2018-04-26T18:49:58.197Z,12.60
2018-04-26T18:52:53.324Z,17.17
2018-04-26T18:55:29.973Z,17.37
2018-04-26T18:58:00.490Z,15.47
2018-04-26T19:00:28.953Z,9.73
2018-04-26T19:02:57.314Z,13.83
2018-04-26T19:05:25.597Z,16.07
2018-04-26T19:07:53.899Z,15.10
2018-04-26T19:10:22.218Z,9.50
2018-04-26T19:12:50.548Z,11.70
2018-04-26T19:15:18.876Z,28.60
2018-04-26T19:17:48.016Z,16.80
2018-04-26T19:20:16.325Z,11.50
2018-04-26T19:22:44.643Z,13.50
2018-04-26T19:25:12.979Z,14.33
2018-04-26T19:27:41.486Z,11.20
2018-04-26T19:30:09.826Z,12.03
2018-04-26T19:32:38.238Z,19.57
2018-04-26T19:35:06.554Z,15.20
2018-04-26T19:37:36.365Z,18.90
2018-04-26T19:40:04.677Z,12.20
2018-04-26T19:42:33.743Z,16.67
2018-04-26T19:45:02.142Z,15.80
2018-04-26T19:47:30.464Z,14.43
2018-04-26T19:49:58.820Z,10.73
2018-04-26T19:52:27.898Z,18.20
2018-04-26T19:54:56.298Z,13.10
2018-04-26T19:57:25.402Z,15.20
2018-04-26T19:59:54.462Z,16.30
2018-04-26T20:02:22.787Z,16.80
2018-04-26T20:04:51.860Z,10.40
2018-04-26T20:07:21.683Z,23.90
2018-04-26T20:09:50.865Z,19.00
2018-04-26T20:12:20.038Z,15.00
2018-04-26T20:14:48.741Z,11.33
2018-04-26T20:17:17.155Z,14.97
2018-04-26T20:19:46.305Z,21.83
2018-04-26T20:22:14.643Z,17.97
2018-04-26T20:24:43.826Z,19.53
2018-04-26T20:27:12.950Z,13.93
2018-04-26T20:29:42.028Z,16.20
2018-04-26T20:32:11.839Z,18.10
2018-04-26T20:34:40.150Z,18.33
2018-04-26T20:37:09.229Z,18.50
2018-04-26T20:39:37.529Z,12.20
2018-04-26T20:42:06.643Z,18.00
2018-04-26T20:44:48.565Z,14.43
2018-04-26T20:47:16.861Z,12.07
2018-04-26T20:49:45.185Z,16.20
2018-04-26T20:52:14.255Z,13.43
2018-04-26T20:54:42.558Z,14.60
2018-04-26T20:57:11.707Z,18.40
2018-04-26T20:59:45.048Z,16.90
2018-04-26T21:02:17.801Z,13.93
2018-04-26T21:04:46.980Z,20.03
2018-04-26T21:07:15.676Z,25.93
2018-04-26T21:09:44.572Z,16.90
2018-04-26T21:12:13.446Z,11.97
2018-04-26T21:14:43.612Z,17.37
2018-04-26T21:17:12.751Z,17.73
2018-04-26T21:19:41.103Z,16.90
2018-04-26T21:22:10.206Z,20.13
2018-04-26T21:24:38.556Z,25.10
2018-04-26T21:27:06.895Z,17.80
2018-04-26T21:29:35.237Z,13.87
2018-04-26T21:32:03.590Z,24.23
2018-04-26T21:34:31.975Z,18.30
2018-04-26T21:37:00.323Z,18.03
2018-04-26T21:39:28.648Z,17.10
2018-04-26T21:41:57.109Z,21.53
2018-04-26T21:44:25.460Z,20.60
2018-04-26T21:46:54.574Z,17.13
2018-04-26T21:49:22.258Z,18.90
2018-04-26T21:51:56.391Z,24.30
2018-04-26T21:54:30.912Z,22.80
2018-04-26T21:57:04.847Z,24.23
2018-04-26T21:59:38.861Z,15.23
2018-04-26T22:02:12.750Z,19.20
2018-04-26T22:04:43.409Z,15.70
2018-04-26T22:07:11.743Z,19.73
2018-04-26T22:09:40.125Z,24.43
2018-04-26T22:12:08.475Z,21.87
2018-04-26T22:14:37.578Z,18.70
2018-04-26T22:17:05.917Z,23.30
2018-04-26T22:19:34.261Z,18.87
2018-04-26T22:22:02.600Z,23.27
2018-04-26T22:24:30.933Z,23.90
2018-04-26T22:26:59.312Z,21.23
2018-04-26T22:29:27.716Z,23.83
2018-04-26T22:31:56.061Z,32.60
2018-04-26T22:34:24.427Z,32.53
2018-04-26T22:36:53.594Z,23.27
2018-04-26T22:39:21.936Z,27.77
2018-04-26T22:41:50.360Z,24.53
2018-04-26T22:44:19.465Z,28.60
2018-04-26T22:46:47.832Z,24.90
2018-04-26T22:49:16.166Z,23.10
2018-04-26T22:51:44.541Z,24.23
2018-04-26T22:54:13.876Z,25.50
2018-04-26T22:56:42.237Z,29.83
2018-04-26T22:59:10.577Z,23.20
2018-04-26T23:01:47.926Z,28.73
2018-04-26T23:04:16.405Z,24.60
2018-04-26T23:06:44.745Z,40.50
2018-04-26T23:09:13.093Z,26.73
2018-04-26T23:11:41.475Z,27.83
2018-04-26T23:14:09.915Z,25.33
2018-04-26T23:16:38.277Z,27.77
2018-04-26T23:19:07.409Z,22.07
2018-04-26T23:21:35.735Z,21.20
2018-04-26T23:24:04.089Z,32.47
2018-04-26T23:26:32.434Z,20.07
2018-04-26T23:29:01.529Z,19.23
2018-04-26T23:31:30.619Z,24.23
2018-04-26T23:33:59.722Z,19.73
2018-04-26T23:36:28.827Z,19.17
2018-04-26T23:38:58.090Z,20.70
2018-04-26T23:41:26.446Z,26.50
2018-04-26T23:43:54.793Z,21.70
2018-04-26T23:46:23.904Z,20.43
2018-04-26T23:48:52.308Z,24.30
2018-04-26T23:51:20.637Z,25.83
2018-04-26T23:53:49.746Z,19.10
2018-04-26T23:56:18.867Z,17.53
2018-04-26T23:58:48.159Z,20.27
